createdAt,value
2022-10-31T00:01:28.464Z,12.60
2022-10-31T00:06:30.296Z,13.30
2022-10-31T00:11:32.132Z,13.90
2022-10-31T00:16:34.999Z,13.30
2022-10-31T00:21:36.754Z,13.90
2022-10-31T00:26:38.671Z,13.70
2022-10-31T00:31:40.454Z,11.80
2022-10-31T00:36:42.274Z,12.80
2022-10-31T00:41:48.639Z,11.50
2022-10-31T00:46:50.434Z,10.70
2022-10-31T00:51:56.749Z,11.80
2022-10-31T00:56:58.711Z,11.60
2022-10-31T01:02:00.704Z,12.40
2022-10-31T01:07:02.657Z,12.30
2022-10-31T01:12:04.946Z,11.90
2022-10-31T01:17:06.776Z,13.10
2022-10-31T01:22:08.631Z,14.30
2022-10-31T01:27:10.801Z,12.40
2022-10-31T01:32:12.537Z,11.80
2022-10-31T01:37:14.360Z,13.30
2022-10-31T01:42:23.020Z,12.10
2022-10-31T01:47:35.070Z,13.10
2022-10-31T01:52:41.619Z,11.80
2022-10-31T01:57:47.719Z,12.70
2022-10-31T02:02:52.661Z,12.20
2022-10-31T02:08:00.994Z,12.90
2022-10-31T02:13:07.265Z,13.00
2022-10-31T02:18:11.666Z,13.70
2022-10-31T02:23:34.980Z,14.10
2022-10-31T02:29:24.461Z,12.90
2022-10-31T02:34:46.804Z,12.60
2022-10-31T02:39:54.630Z,11.20
2022-10-31T02:45:13.115Z,12.30
2022-10-31T02:50:24.704Z,11.50
2022-10-31T02:55:26.425Z,11.60
2022-10-31T03:00:40.320Z,11.90
2022-10-31T03:05:50.192Z,12.10
2022-10-31T03:10:58.339Z,10.90
2022-10-31T03:16:17.118Z,11.70
2022-10-31T03:21:29.359Z,10.80
2022-10-31T03:26:31.999Z,11.50
2022-10-31T03:31:40.757Z,12.10
2022-10-31T03:36:45.402Z,11.60
2022-10-31T03:41:55.831Z,11.30
2022-10-31T03:46:58.298Z,10.40
2022-10-31T03:52:13.363Z,11.80
2022-10-31T03:57:24.282Z,12.20
2022-10-31T04:02:31.113Z,11.80
2022-10-31T04:07:40.032Z,13.20
2022-10-31T04:12:50.564Z,12.70
2022-10-31T04:18:00.404Z,13.30
2022-10-31T04:23:04.049Z,11.20
2022-10-31T04:28:06.788Z,12.00
2022-10-31T04:33:09.465Z,10.40
2022-10-31T04:38:11.697Z,12.30
2022-10-31T04:43:14.256Z,12.60
2022-10-31T04:48:18.185Z,13.70
2022-10-31T04:53:20.324Z,11.40
2022-10-31T04:58:48.023Z,13.10
2022-10-31T05:03:49.909Z,14.90
2022-10-31T05:08:52.113Z,13.50
2022-10-31T05:13:55.051Z,12.70
2022-10-31T05:19:16.789Z,13.00
2022-10-31T05:24:37.460Z,12.20
2022-10-31T05:29:39.327Z,10.80
2022-10-31T05:34:41.241Z,11.90
2022-10-31T05:40:14.992Z,11.70
2022-10-31T05:45:19.538Z,11.90
2022-10-31T05:50:30.768Z,12.00
2022-10-31T05:55:42.004Z,12.70
2022-10-31T06:00:47.025Z,14.50
2022-10-31T06:05:52.286Z,13.20
2022-10-31T06:10:57.723Z,13.80
2022-10-31T06:16:19.469Z,13.70
2022-10-31T06:21:21.680Z,16.00
2022-10-31T06:26:24.468Z,14.30
2022-10-31T06:31:26.383Z,13.80
2022-10-31T06:41:35.116Z,11.60
2022-10-31T06:46:37.985Z,12.80
2022-10-31T06:51:51.197Z,11.10
2022-10-31T06:56:53.046Z,11.90
2022-10-31T07:01:54.917Z,13.50
2022-10-31T07:06:57.580Z,14.20
2022-10-31T07:11:59.465Z,12.10
2022-10-31T07:17:01.440Z,13.10
2022-10-31T07:22:12.673Z,12.50
2022-10-31T07:27:15.157Z,14.70
2022-10-31T07:32:18.259Z,13.10
2022-10-31T07:37:28.738Z,15.00
2022-10-31T07:42:39.203Z,13.50
2022-10-31T07:47:53.223Z,13.80
2022-10-31T07:53:15.141Z,13.40
2022-10-31T07:58:19.552Z,14.90
2022-10-31T08:03:21.578Z,13.50
2022-10-31T08:08:42.393Z,15.20
2022-10-31T08:13:44.468Z,14.60
2022-10-31T08:18:49.164Z,17.80
2022-10-31T08:23:51.217Z,15.20
2022-10-31T08:28:55.961Z,15.70
2022-10-31T08:33:58.863Z,14.50
2022-10-31T08:39:38.926Z,15.00
2022-10-31T08:44:40.954Z,13.70
2022-10-31T08:49:43.154Z,13.20
2022-10-31T08:54:45.176Z,11.40
2022-10-31T09:00:06.584Z,11.40
2022-10-31T09:05:41.429Z,10.50
2022-10-31T09:10:46.406Z,10.70
2022-10-31T09:15:50.682Z,10.90
2022-10-31T09:21:01.959Z,8.30
2022-10-31T09:26:05.647Z,9.10
2022-10-31T09:31:17.499Z,9.20
2022-10-31T09:36:32.093Z,9.00
2022-10-31T09:41:43.078Z,8.20
2022-10-31T09:47:01.940Z,7.40
2022-10-31T09:52:20.047Z,8.30
2022-10-31T09:57:30.808Z,7.90
2022-10-31T10:02:38.927Z,8.60
2022-10-31T10:08:00.851Z,7.90
2022-10-31T10:13:36.934Z,8.00
2022-10-31T10:18:53.395Z,7.50
2022-10-31T10:24:34.341Z,6.90
2022-10-31T10:29:48.600Z,6.40
2022-10-31T10:35:00.123Z,7.50
2022-10-31T10:40:12.684Z,7.00
2022-10-31T10:45:36.452Z,7.10
2022-10-31T10:50:50.622Z,6.90
2022-10-31T10:56:01.555Z,6.70
2022-10-31T11:01:12.996Z,13.30
2022-10-31T11:06:23.160Z,8.70
2022-10-31T11:11:29.258Z,6.80
2022-10-31T11:16:38.106Z,6.70
2022-10-31T11:21:43.006Z,5.90
2022-10-31T11:26:47.674Z,6.20
2022-10-31T11:31:53.539Z,5.20
2022-10-31T11:37:00.303Z,5.60
2022-10-31T11:42:08.781Z,5.80
2022-10-31T11:47:15.813Z,4.90
2022-10-31T11:52:19.907Z,5.20
2022-10-31T11:57:27.581Z,5.10
2022-10-31T12:02:29.471Z,4.90
2022-10-31T12:07:31.705Z,4.20
2022-10-31T12:12:58.613Z,5.00
2022-10-31T12:18:12.595Z,4.50
2022-10-31T12:23:34.842Z,4.70
2022-10-31T12:28:55.259Z,4.30
2022-10-31T12:34:18.011Z,3.30
2022-10-31T12:39:35.260Z,3.70
2022-10-31T12:44:49.330Z,4.40
2022-10-31T12:49:51.083Z,3.80
2022-10-31T12:55:05.740Z,3.60
2022-10-31T13:00:17.083Z,3.40
2022-10-31T13:05:31.368Z,3.30
2022-10-31T13:10:44.518Z,3.70
2022-10-31T13:15:53.055Z,3.10
2022-10-31T13:20:56.865Z,4.40
2022-10-31T13:26:02.860Z,3.60
2022-10-31T13:31:04.889Z,4.10
2022-10-31T13:36:16.034Z,4.50
2022-10-31T13:41:40.177Z,3.70
2022-10-31T13:51:53.608Z,3.90
2022-10-31T13:56:55.433Z,4.60
2022-10-31T14:02:01.970Z,4.40
2022-10-31T14:07:19.349Z,3.80
2022-10-31T14:12:44.894Z,4.00
2022-10-31T14:17:53.810Z,3.80
2022-10-31T14:22:55.688Z,3.90
2022-10-31T14:27:58.813Z,4.20
2022-10-31T14:33:20.914Z,4.50
2022-10-31T14:38:29.165Z,3.80
2022-10-31T14:44:05.015Z,3.90
2022-10-31T14:49:12.919Z,7.10
2022-10-31T14:54:46.901Z,5.40
2022-10-31T15:00:09.812Z,4.40
2022-10-31T15:05:14.346Z,4.80
2022-10-31T15:10:27.683Z,5.20
2022-10-31T15:15:29.522Z,4.20
2022-10-31T15:20:44.013Z,4.50
2022-10-31T15:25:47.043Z,4.90
2022-10-31T15:31:01.051Z,5.30
2022-10-31T15:36:03.560Z,4.90
2022-10-31T15:41:21.018Z,5.70
2022-10-31T15:46:23.054Z,5.70
2022-10-31T15:51:33.417Z,6.00
2022-10-31T15:56:35.342Z,6.30
2022-10-31T16:01:37.256Z,6.00
2022-10-31T16:06:39.678Z,6.10
2022-10-31T16:11:42.369Z,6.00
2022-10-31T16:16:52.962Z,6.70
2022-10-31T16:22:13.285Z,7.10
2022-10-31T16:27:31.001Z,7.10
2022-10-31T16:32:37.443Z,7.00
2022-10-31T16:37:42.558Z,7.90
2022-10-31T16:42:46.003Z,8.60
2022-10-31T16:47:49.549Z,7.50
2022-10-31T16:58:24.215Z,7.70
2022-10-31T17:03:26.508Z,14.80
2022-10-31T17:08:28.346Z,10.90
2022-10-31T17:13:32.618Z,8.90
2022-10-31T17:18:34.432Z,8.90
2022-10-31T17:23:38.314Z,9.90
2022-10-31T17:28:40.268Z,11.20
2022-10-31T17:33:43.384Z,11.10
2022-10-31T17:38:45.170Z,10.50
2022-10-31T17:43:46.943Z,12.40
2022-10-31T17:48:48.780Z,11.80
2022-10-31T17:53:50.572Z,11.80
2022-10-31T17:58:52.467Z,14.50
2022-10-31T18:03:54.273Z,15.10
2022-10-31T18:08:58.210Z,18.20
2022-10-31T18:14:00.876Z,16.00
2022-10-31T18:19:05.475Z,16.20
2022-10-31T18:24:07.722Z,17.50
2022-10-31T18:29:11.910Z,17.80
2022-10-31T18:34:13.897Z,19.30
2022-10-31T18:39:15.966Z,17.70
2022-10-31T18:44:17.800Z,19.00
2022-10-31T18:49:22.819Z,20.80
2022-10-31T18:54:24.592Z,21.70
2022-10-31T18:59:26.432Z,21.50
2022-10-31T19:04:28.425Z,18.90
2022-10-31T19:09:31.872Z,26.30
2022-10-31T19:14:33.629Z,33.70
2022-10-31T19:19:35.739Z,26.70
2022-10-31T19:24:37.651Z,23.10
2022-10-31T19:29:42.184Z,24.70
2022-10-31T19:34:44.985Z,34.00
2022-10-31T19:39:46.879Z,36.50
2022-10-31T19:44:48.686Z,33.80
2022-10-31T19:49:50.901Z,37.50
2022-10-31T19:54:52.743Z,40.40
2022-10-31T19:59:54.574Z,44.80
2022-10-31T20:04:56.871Z,45.70
2022-10-31T20:09:58.612Z,42.60
2022-10-31T20:15:00.392Z,46.00
2022-10-31T20:20:07.230Z,41.80
2022-10-31T20:25:09.219Z,42.20
2022-10-31T20:30:11.927Z,41.90
2022-10-31T20:35:13.671Z,44.10
2022-10-31T20:40:15.547Z,46.40
2022-10-31T20:45:17.468Z,42.90
2022-10-31T20:50:19.330Z,42.40
2022-10-31T20:55:21.425Z,40.20
2022-10-31T21:00:23.246Z,43.60
2022-10-31T21:05:25.034Z,39.00
2022-10-31T21:10:26.765Z,39.30
2022-10-31T21:15:28.539Z,40.30
2022-10-31T21:20:30.302Z,39.10
2022-10-31T21:25:32.195Z,39.10
2022-10-31T21:30:34.952Z,39.20
2022-10-31T21:35:37.047Z,38.90
2022-10-31T21:40:38.843Z,34.20
2022-10-31T21:45:40.753Z,39.10
2022-10-31T21:50:42.551Z,39.30
2022-10-31T21:55:44.344Z,43.20
2022-10-31T22:00:46.215Z,43.90
2022-10-31T22:05:48.011Z,47.60
2022-10-31T22:10:49.829Z,46.60
2022-10-31T22:15:53.899Z,46.90
2022-10-31T22:21:02.001Z,44.00
2022-10-31T22:26:14.483Z,45.10
2022-10-31T22:31:18.511Z,43.10
2022-10-31T22:36:25.761Z,41.20
2022-10-31T22:41:33.202Z,37.00
2022-10-31T22:46:37.981Z,36.30
2022-10-31T22:51:41.106Z,30.30
2022-10-31T22:56:43.902Z,31.30
2022-10-31T23:01:46.216Z,30.80
2022-10-31T23:06:49.312Z,35.30
2022-10-31T23:11:51.068Z,31.80
2022-10-31T23:16:56.057Z,34.00
2022-10-31T23:22:04.225Z,30.80
2022-10-31T23:27:12.527Z,28.70
2022-10-31T23:32:27.150Z,30.10
2022-10-31T23:37:32.743Z,28.40
2022-10-31T23:42:34.801Z,25.40
2022-10-31T23:47:40.879Z,24.90
2022-10-31T23:52:45.153Z,24.50
2022-10-31T23:57:46.950Z,22.50
